createdAt,value
2023-01-18T00:01:00.815Z,96073.41
2023-01-18T00:03:27.156Z,96066.94
2023-01-18T00:05:54.933Z,96068.16
2023-01-18T00:08:21.550Z,96061.06
2023-01-18T00:10:47.890Z,96068.94
2023-01-18T00:13:14.339Z,96072.59
2023-01-18T00:15:40.901Z,96069.13
2023-01-18T00:18:07.523Z,96068.72
2023-01-18T00:20:34.289Z,96068.53
2023-01-18T00:23:01.820Z,96067.13
2023-01-18T00:25:29.279Z,96058.44
2023-01-18T00:27:56.310Z,96067.75
2023-01-18T00:30:27.997Z,96066.94
2023-01-18T00:32:59.276Z,96071.97
2023-01-18T00:35:26.611Z,96064.50
2023-01-18T00:37:58.839Z,96065.91
2023-01-18T00:40:25.181Z,96066.31
2023-01-18T00:42:51.528Z,96064.72
2023-01-18T00:45:17.995Z,96062.88
2023-01-18T00:47:44.602Z,96064.72
2023-01-18T00:50:11.497Z,96069.13
2023-01-18T00:52:37.955Z,96071.34
2023-01-18T00:55:05.943Z,96068.34
2023-01-18T00:57:32.308Z,96062.50
2023-01-18T00:59:58.666Z,96064.72
2023-01-18T01:02:25.270Z,96067.75
2023-01-18T01:04:51.707Z,96066.31
2023-01-18T01:07:18.158Z,96063.06
2023-01-18T01:09:44.620Z,96059.84
2023-01-18T01:12:11.015Z,96067.34
2023-01-18T01:14:41.303Z,96067.13
2023-01-18T01:17:07.796Z,96063.88
2023-01-18T01:19:35.635Z,96036.63
2023-01-18T01:22:02.317Z,96034.00
2023-01-18T01:24:28.679Z,96038.00
2023-01-18T01:26:55.034Z,96032.38
2023-01-18T01:29:21.371Z,96027.13
2023-01-18T01:31:47.933Z,96026.94
2023-01-18T01:34:14.265Z,96034.41
2023-01-18T01:36:40.882Z,96033.59
2023-01-18T01:39:07.354Z,96032.78
2023-01-18T01:41:34.969Z,96038.63
2023-01-18T01:44:04.054Z,96045.31
2023-01-18T01:46:37.009Z,96039.84
2023-01-18T01:49:15.806Z,96048.75
2023-01-18T01:52:13.440Z,96050.56
2023-01-18T01:54:54.229Z,96046.72
2023-01-18T01:57:21.843Z,96060.25
2023-01-18T01:59:58.351Z,96060.44
2023-01-18T02:02:25.192Z,96060.44
2023-01-18T02:04:53.810Z,96062.84
2023-01-18T02:07:22.520Z,96059.63
2023-01-18T02:09:49.990Z,96057.41
2023-01-18T02:12:19.220Z,96055.41
2023-01-18T02:14:45.730Z,96055.19
2023-01-18T02:17:35.280Z,96054.00
2023-01-18T02:20:34.163Z,96052.97
2023-01-18T02:23:22.319Z,96053.59
2023-01-18T02:26:03.210Z,96061.06
2023-01-18T02:28:35.079Z,96063.28
2023-01-18T02:31:16.863Z,96065.69
2023-01-18T02:33:50.701Z,96069.56
2023-01-18T02:36:30.330Z,96063.28
2023-01-18T02:39:06.339Z,96064.91
2023-01-18T02:41:45.505Z,96065.69
2023-01-18T02:44:13.836Z,96063.69
2023-01-18T02:46:40.514Z,96065.69
2023-01-18T02:49:12.616Z,96069.75
2023-01-18T02:51:39.046Z,96080.88
2023-01-18T02:54:09.341Z,96085.50
2023-01-18T02:56:49.479Z,96080.06
2023-01-18T02:59:22.874Z,96084.31
2023-01-18T03:01:54.285Z,96089.56
2023-01-18T03:04:23.680Z,96088.34
2023-01-18T03:07:29.108Z,96095.63
2023-01-18T03:09:56.680Z,96092.41
2023-01-18T03:12:29.263Z,96094.81
2023-01-18T03:15:08.018Z,96097.84
2023-01-18T03:17:42.513Z,96096.81
2023-01-18T03:20:12.719Z,96101.25
2023-01-18T03:22:52.030Z,96106.31
2023-01-18T03:25:22.418Z,96105.31
2023-01-18T03:27:51.957Z,96108.56
2023-01-18T03:30:18.630Z,96101.66
2023-01-18T03:32:45.452Z,96104.09
2023-01-18T03:35:16.804Z,96105.53
2023-01-18T03:37:47.941Z,96107.13
2023-01-18T03:40:20.014Z,96110.38
2023-01-18T03:43:06.254Z,96114.00
2023-01-18T03:45:42.167Z,96117.88
2023-01-18T03:48:09.651Z,96116.84
2023-01-18T03:51:09.345Z,96114.00
2023-01-18T03:53:56.198Z,96128.53
2023-01-18T03:56:32.321Z,96132.38
2023-01-18T03:59:03.020Z,96142.91
2023-01-18T04:01:29.736Z,96147.94
2023-01-18T04:03:56.125Z,96164.69
2023-01-18T04:06:22.863Z,96188.13
2023-01-18T04:08:50.390Z,96197.38
2023-01-18T04:11:16.859Z,96208.09
2023-01-18T04:13:44.573Z,96220.44
2023-01-18T04:16:11.057Z,96232.13
2023-01-18T04:18:37.434Z,96242.41
2023-01-18T04:21:03.953Z,96253.56
2023-01-18T04:23:30.541Z,96261.44
2023-01-18T04:25:56.903Z,96268.69
2023-01-18T04:28:23.539Z,96277.56
2023-01-18T04:30:50.269Z,96288.19
2023-01-18T04:33:16.914Z,96303.75
2023-01-18T04:35:43.829Z,96313.50
2023-01-18T04:38:10.732Z,96310.06
2023-01-18T04:40:37.376Z,96321.16
2023-01-18T04:43:03.868Z,96330.47
2023-01-18T04:45:30.778Z,96324.13
2023-01-18T04:47:57.451Z,96333.44
2023-01-18T04:50:23.998Z,96333.06
2023-01-18T04:52:50.412Z,96329.38
2023-01-18T04:55:17.024Z,96334.59
2023-01-18T04:57:44.905Z,96336.59
2023-01-18T05:00:13.005Z,96348.66
2023-01-18T05:02:39.417Z,96357.16
2023-01-18T05:05:06.504Z,96364.63
2023-01-18T05:07:34.514Z,96368.47
2023-01-18T05:10:01.208Z,96376.97
2023-01-18T05:12:28.588Z,96382.84
2023-01-18T05:14:55.832Z,96383.66
2023-01-18T05:17:22.951Z,96393.78
2023-01-18T05:19:49.280Z,96394.63
2023-01-18T05:22:18.185Z,96391.19
2023-01-18T05:24:45.759Z,96397.88
2023-01-18T05:27:12.175Z,96402.88
2023-01-18T05:29:38.978Z,96402.94
2023-01-18T05:32:05.608Z,96403.75
2023-01-18T05:34:32.429Z,96406.16
2023-01-18T05:36:59.244Z,96410.22
2023-01-18T05:39:27.191Z,96414.03
2023-01-18T05:41:53.582Z,96413.78
2023-01-18T05:44:20.065Z,96421.00
2023-01-18T05:46:46.401Z,96417.03
2023-01-18T05:49:13.092Z,96412.97
2023-01-18T05:51:39.578Z,96412.09
2023-01-18T05:54:06.012Z,96415.28
2023-01-18T05:56:32.372Z,96417.69
2023-01-18T05:58:58.766Z,96414.47
2023-01-18T06:01:25.293Z,96416.63
2023-01-18T06:03:51.675Z,96414.97
2023-01-18T06:06:18.199Z,96419.41
2023-01-18T06:08:44.684Z,96406.28
2023-01-18T06:11:11.171Z,96410.56
2023-01-18T06:13:37.611Z,96406.06
2023-01-18T06:16:04.548Z,96410.03
2023-01-18T06:18:33.521Z,96410.63
2023-01-18T06:21:02.174Z,96412.06
2023-01-18T06:23:31.856Z,96414.44
2023-01-18T06:25:58.434Z,96420.81
2023-01-18T06:28:24.883Z,96422.94
2023-01-18T06:30:55.386Z,96432.66
2023-01-18T06:33:23.317Z,96434.50
2023-01-18T06:35:49.951Z,96437.28
2023-01-18T06:38:16.385Z,96445.78
2023-01-18T06:40:44.982Z,96444.50
2023-01-18T06:43:11.648Z,96460.88
2023-01-18T06:45:38.160Z,96468.75
2023-01-18T06:48:05.201Z,96470.38
2023-01-18T06:50:31.558Z,96483.59
2023-01-18T06:52:58.385Z,96491.81
2023-01-18T06:55:27.981Z,96509.81
2023-01-18T06:57:54.447Z,96525.63
2023-01-18T07:00:21.404Z,96554.47
2023-01-18T07:02:50.734Z,96581.31
2023-01-18T07:05:17.181Z,96593.19
2023-01-18T07:07:43.771Z,96605.50
2023-01-18T07:10:10.574Z,96612.19
2023-01-18T07:12:37.209Z,96617.44
2023-01-18T07:15:20.480Z,96620.88
2023-01-18T07:17:47.744Z,96625.38
2023-01-18T07:20:15.165Z,96629.47
2023-01-18T07:22:41.885Z,96629.00
2023-01-18T07:25:08.860Z,96630.44
2023-01-18T07:27:35.270Z,96634.34
2023-01-18T07:30:01.863Z,96630.28
2023-01-18T07:32:28.305Z,96631.44
2023-01-18T07:34:55.087Z,96630.88
2023-01-18T07:37:22.827Z,96627.91
2023-01-18T07:39:49.178Z,96624.66
2023-01-18T07:42:15.512Z,96625.63
2023-01-18T07:44:41.936Z,96615.63
2023-01-18T07:47:08.996Z,96617.03
2023-01-18T07:49:35.471Z,96612.63
2023-01-18T07:52:02.721Z,96611.41
2023-01-18T07:54:29.311Z,96614.25
2023-01-18T07:56:57.061Z,96617.88
2023-01-18T07:59:23.444Z,96618.13
2023-01-18T08:01:49.904Z,96619.63
2023-01-18T08:04:16.597Z,96630.50
2023-01-18T08:06:43.296Z,96628.44
2023-01-18T08:09:11.682Z,96634.50
2023-01-18T08:11:38.088Z,96632.75
2023-01-18T08:14:04.451Z,96644.34
2023-01-18T08:16:30.852Z,96646.38
2023-01-18T08:18:57.668Z,96653.69
2023-01-18T08:21:24.137Z,96669.53
2023-01-18T08:23:53.530Z,96683.84
2023-01-18T08:26:20.182Z,96685.47
2023-01-18T08:28:47.681Z,96696.69
2023-01-18T08:31:16.839Z,96706.97
2023-01-18T08:33:45.200Z,96719.47
2023-01-18T08:36:17.461Z,96733.50
2023-01-18T08:38:47.792Z,96770.88
2023-01-18T08:41:14.293Z,96804.81
2023-01-18T08:43:40.970Z,96831.06
2023-01-18T08:46:07.477Z,96870.72
2023-01-18T08:48:34.271Z,96915.59
2023-01-18T08:51:02.275Z,96953.31
2023-01-18T08:53:31.103Z,96974.91
2023-01-18T08:56:04.472Z,96997.16
2023-01-18T08:58:32.575Z,97013.19
2023-01-18T09:00:59.151Z,97018.28
2023-01-18T09:03:25.571Z,97026.47
2023-01-18T09:05:52.023Z,97037.78
2023-01-18T09:08:18.703Z,97043.50
2023-01-18T09:10:48.474Z,97042.31
2023-01-18T09:13:15.838Z,97051.22
2023-01-18T09:15:42.252Z,97048.97
2023-01-18T09:18:08.731Z,97048.97
2023-01-18T09:20:35.671Z,97046.13
2023-01-18T09:23:09.623Z,97056.50
2023-01-18T09:25:38.015Z,97069.38
2023-01-18T09:28:05.468Z,97073.78
2023-01-18T09:30:32.646Z,97072.94
2023-01-18T09:32:59.416Z,97070.06
2023-01-18T09:35:26.244Z,97086.63
2023-01-18T09:37:55.271Z,97084.81
2023-01-18T09:40:28.853Z,97095.97
2023-01-18T09:42:55.306Z,97108.91
2023-01-18T09:45:34.567Z,97106.94
2023-01-18T09:48:06.614Z,97113.19
2023-01-18T09:50:43.513Z,97117.44
2023-01-18T09:53:28.781Z,97129.75
2023-01-18T09:56:13.007Z,97127.03
2023-01-18T09:59:17.305Z,97133.34
2023-01-18T10:01:45.567Z,97149.09
2023-01-18T10:04:21.422Z,97144.69
2023-01-18T10:07:00.563Z,97145.84
2023-01-18T10:09:31.924Z,97146.78
2023-01-18T10:12:01.867Z,97143.25
2023-01-18T10:14:59.899Z,97156.00
2023-01-18T10:17:36.255Z,97153.31
2023-01-18T10:20:13.835Z,97159.38
2023-01-18T10:22:53.487Z,97163.44
2023-01-18T10:25:40.499Z,97154.13
2023-01-18T10:28:19.563Z,97162.22
2023-01-18T10:30:52.851Z,97167.47
2023-01-18T10:33:36.993Z,97169.53
2023-01-18T10:36:11.921Z,97165.75
2023-01-18T10:38:41.516Z,97178.88
2023-01-18T10:41:19.801Z,97182.75
2023-01-18T10:43:46.609Z,97194.44
2023-01-18T10:46:16.454Z,97196.13
2023-01-18T10:48:51.781Z,97213.44
2023-01-18T10:51:36.674Z,97208.00
2023-01-18T10:54:25.848Z,97209.69
2023-01-18T10:57:05.667Z,97214.13
2023-01-18T10:59:37.608Z,97212.44
2023-01-18T11:02:04.761Z,97214.53
2023-01-18T11:04:33.688Z,97210.97
2023-01-18T11:07:03.042Z,97206.47
2023-01-18T11:09:53.122Z,97202.25
2023-01-18T11:12:34.280Z,97211.75
2023-01-18T11:15:23.290Z,97201.06
2023-01-18T11:17:56.273Z,97207.78
2023-01-18T11:20:48.514Z,97213.13
2023-01-18T11:23:24.847Z,97210.34
2023-01-18T11:25:59.752Z,97218.59
2023-01-18T11:28:30.757Z,97217.75
2023-01-18T11:31:06.203Z,97220.94
2023-01-18T11:33:33.177Z,97224.56
2023-01-18T11:36:02.028Z,97236.13
2023-01-18T11:38:33.465Z,97227.78
2023-01-18T11:41:21.429Z,97238.97
2023-01-18T11:44:02.492Z,97229.22
2023-01-18T11:46:38.010Z,97232.00
2023-01-18T11:49:20.439Z,97235.16
2023-01-18T11:52:03.093Z,97238.75
2023-01-18T11:54:45.853Z,97227.16
2023-01-18T11:57:12.561Z,97230.38
2023-01-18T11:59:44.081Z,97242.69
2023-01-18T12:02:10.428Z,97244.31
2023-01-18T12:04:57.628Z,97246.13
2023-01-18T12:07:34.607Z,97254.78
2023-01-18T12:10:02.148Z,97258.38
2023-01-18T12:13:04.388Z,97266.94
2023-01-18T12:16:05.742Z,97270.22
2023-01-18T12:18:56.260Z,97268.31
2023-01-18T12:22:05.610Z,97287.97
2023-01-18T12:24:48.213Z,97308.28
2023-01-18T12:27:52.122Z,97306.31
2023-01-18T12:30:30.566Z,97314.53
2023-01-18T12:33:42.282Z,97315.88
2023-01-18T12:36:38.342Z,97307.00
2023-01-18T12:39:42.297Z,97306.53
2023-01-18T12:42:42.735Z,97310.78
2023-01-18T12:45:23.264Z,97316.34
2023-01-18T12:48:12.692Z,97324.06
2023-01-18T12:50:42.687Z,97332.25
2023-01-18T12:53:37.002Z,97333.53
2023-01-18T12:56:13.607Z,97330.91
2023-01-18T12:58:43.069Z,97328.63
2023-01-18T13:01:17.146Z,97319.59
2023-01-18T13:03:46.210Z,97322.22
2023-01-18T13:06:13.059Z,97316.13
2023-01-18T13:08:44.567Z,97326.00
2023-01-18T13:11:18.157Z,97313.69
2023-01-18T13:13:45.440Z,97320.25
2023-01-18T13:16:39.653Z,97340.28
2023-01-18T13:19:10.805Z,97409.09
2023-01-18T13:21:47.947Z,97405.81
2023-01-18T13:24:43.208Z,97385.47
2023-01-18T13:27:12.005Z,97365.13
2023-01-18T13:29:39.591Z,97376.25
2023-01-18T13:32:22.770Z,97362.28
2023-01-18T13:35:17.985Z,97361.41
2023-01-18T13:37:48.417Z,97351.84
2023-01-18T13:40:39.332Z,97344.78
2023-01-18T13:43:26.424Z,97330.97
2023-01-18T13:46:03.129Z,97326.81
2023-01-18T13:48:57.131Z,97336.66
2023-01-18T13:51:38.629Z,97332.09
2023-01-18T13:54:10.004Z,97330.13
2023-01-18T13:56:37.915Z,97323.75
2023-01-18T13:59:21.432Z,97336.06
2023-01-18T14:01:49.355Z,97330.16
2023-01-18T14:04:24.372Z,97365.34
2023-01-18T14:06:52.445Z,97363.22
2023-01-18T14:09:31.683Z,97381.91
2023-01-18T14:11:59.140Z,97404.94
2023-01-18T14:14:35.705Z,97409.19
2023-01-18T14:17:17.847Z,97426.13
2023-01-18T14:19:47.063Z,97438.28
2023-01-18T14:22:25.452Z,97440.25
2023-01-18T14:25:16.589Z,97450.44
2023-01-18T14:27:47.015Z,97460.13
2023-01-18T14:30:45.676Z,97477.38
2023-01-18T14:33:35.968Z,97468.00
2023-01-18T14:36:04.524Z,97454.88
2023-01-18T14:38:31.617Z,97448.13
2023-01-18T14:41:07.901Z,97453.72
2023-01-18T14:43:41.895Z,97486.22
2023-01-18T14:46:13.761Z,97505.94
2023-01-18T14:48:53.335Z,97515.13
2023-01-18T14:51:25.381Z,97503.31
2023-01-18T14:54:00.065Z,97502.16
2023-01-18T14:56:29.929Z,97526.63
2023-01-18T14:58:59.699Z,97526.63
2023-01-18T15:01:28.260Z,97522.03
2023-01-18T15:03:56.873Z,97530.94
2023-01-18T15:06:47.768Z,97555.38
2023-01-18T15:09:14.841Z,97576.56
2023-01-18T15:11:44.076Z,97590.69
2023-01-18T15:14:17.281Z,97608.09
2023-01-18T15:16:47.483Z,97624.03
2023-01-18T15:19:32.677Z,97618.28
2023-01-18T15:22:01.105Z,97604.31
2023-01-18T15:24:28.077Z,97597.28
2023-01-18T15:27:02.527Z,97590.34
2023-01-18T15:29:36.758Z,97600.53
2023-01-18T15:32:13.621Z,97601.22
2023-01-18T15:34:43.948Z,97595.47
2023-01-18T15:37:21.878Z,97591.16
2023-01-18T15:39:59.097Z,97595.28
2023-01-18T15:42:33.613Z,97623.53
2023-01-18T15:45:00.512Z,97678.53
2023-01-18T15:47:34.006Z,97701.84
2023-01-18T15:50:02.646Z,97702.84
2023-01-18T15:52:47.063Z,97697.44
2023-01-18T15:55:24.472Z,97715.81
2023-01-18T15:58:00.911Z,97740.28
2023-01-18T16:00:32.013Z,97750.94
2023-01-18T16:02:58.283Z,97753.88
2023-01-18T16:05:25.863Z,97752.75
2023-01-18T16:08:16.116Z,97745.69
2023-01-18T16:10:54.741Z,97744.88
2023-01-18T16:13:33.413Z,97748.63
2023-01-18T16:16:17.914Z,97768.38
2023-01-18T16:18:48.118Z,97785.91
2023-01-18T16:21:22.868Z,97801.84
2023-01-18T16:23:51.105Z,97801.03
2023-01-18T16:26:20.608Z,97803.00
2023-01-18T16:28:47.016Z,97811.88
2023-01-18T16:31:13.859Z,97818.38
2023-01-18T16:33:40.307Z,97841.22
2023-01-18T16:36:18.429Z,97856.34
2023-01-18T16:38:45.024Z,97867.66
2023-01-18T16:41:12.625Z,97873.38
2023-01-18T16:43:39.260Z,97857.47
2023-01-18T16:46:05.974Z,97859.91
2023-01-18T16:48:32.616Z,97862.03
2023-01-18T16:50:59.351Z,97839.88
2023-01-18T16:53:25.942Z,97840.41
2023-01-18T16:55:52.313Z,97855.34
2023-01-18T16:58:18.940Z,97878.47
2023-01-18T17:00:54.374Z,97890.41
2023-01-18T17:03:21.017Z,97903.03
2023-01-18T17:05:47.784Z,97917.31
2023-01-18T17:08:15.382Z,97924.75
2023-01-18T17:10:47.265Z,97940.50
2023-01-18T17:13:13.663Z,97941.31
2023-01-18T17:15:41.300Z,97933.13
2023-01-18T17:18:14.024Z,97933.13
2023-01-18T17:20:40.615Z,97950.16
2023-01-18T17:23:07.816Z,97960.53
2023-01-18T17:25:34.774Z,97976.97
2023-01-18T17:28:01.234Z,97985.66
2023-01-18T17:30:27.982Z,97970.81
2023-01-18T17:32:54.692Z,97974.69
2023-01-18T17:35:23.037Z,97971.41
2023-01-18T17:37:54.446Z,97965.09
2023-01-18T17:40:38.149Z,97959.84
2023-01-18T17:43:06.286Z,97982.38
2023-01-18T17:45:33.013Z,98013.22
2023-01-18T17:47:59.987Z,98049.28
2023-01-18T17:50:26.311Z,98100.69
2023-01-18T17:52:53.322Z,98132.22
2023-01-18T17:55:24.511Z,98173.81
2023-01-18T17:57:59.130Z,98196.78
2023-01-18T18:00:26.750Z,98210.06
2023-01-18T18:02:54.071Z,98226.78
2023-01-18T18:05:20.764Z,98238.78
2023-01-18T18:07:47.168Z,98247.78
2023-01-18T18:10:13.651Z,98260.94
2023-01-18T18:12:40.077Z,98268.66
2023-01-18T18:15:08.111Z,98267.00
2023-01-18T18:17:34.626Z,98261.22
2023-01-18T18:20:01.180Z,98263.16
2023-01-18T18:22:28.135Z,98286.66
2023-01-18T18:24:54.581Z,98300.72
2023-01-18T18:27:23.119Z,98325.75
2023-01-18T18:29:50.153Z,98323.13
2023-01-18T18:32:16.511Z,98319.50
2023-01-18T18:34:43.359Z,98316.63
2023-01-18T18:37:09.746Z,98313.75
2023-01-18T18:39:36.083Z,98316.78
2023-01-18T18:42:03.185Z,98338.63
2023-01-18T18:44:31.179Z,98362.81
2023-01-18T18:46:57.583Z,98387.94
2023-01-18T18:49:24.216Z,98404.09
2023-01-18T18:51:51.130Z,98407.84
2023-01-18T18:54:17.925Z,98430.19
2023-01-18T18:56:44.562Z,98435.72
2023-01-18T18:59:11.172Z,98438.06
2023-01-18T19:01:38.209Z,98457.34
2023-01-18T19:04:05.146Z,98488.56
2023-01-18T19:06:31.559Z,98491.63
2023-01-18T19:08:58.697Z,98225.88
2023-01-18T19:11:25.046Z,97909.47
2023-01-18T19:13:51.752Z,97899.38
2023-01-18T19:16:18.412Z,97880.19
2023-01-18T19:18:46.099Z,97883.47
2023-01-18T19:21:12.424Z,97877.41
2023-01-18T19:23:39.119Z,97876.28
2023-01-18T19:26:05.841Z,97873.94
2023-01-18T19:28:32.485Z,97870.50
2023-01-18T19:31:06.505Z,97872.59
2023-01-18T19:33:32.964Z,97874.94
2023-01-18T19:36:13.311Z,97873.94
2023-01-18T19:38:45.993Z,97872.97
2023-01-18T19:41:14.748Z,97877.25
2023-01-18T19:43:41.425Z,97878.06
2023-01-18T19:46:09.488Z,97894.50
2023-01-18T19:48:37.165Z,97894.63
2023-01-18T19:51:20.264Z,97894.13
2023-01-18T19:53:48.105Z,97895.75
2023-01-18T19:56:16.326Z,97892.31
2023-01-18T19:58:42.761Z,97899.38
2023-01-18T20:01:11.229Z,97896.88
2023-01-18T20:03:37.628Z,97898.84
2023-01-18T20:06:12.409Z,97894.72
2023-01-18T20:08:38.740Z,97899.44
2023-01-18T20:11:07.445Z,97902.78
2023-01-18T20:13:35.432Z,97902.13
2023-01-18T20:16:02.420Z,97903.81
2023-01-18T20:18:34.188Z,97911.44
2023-01-18T20:21:12.796Z,97916.44
2023-01-18T20:23:40.535Z,97916.22
2023-01-18T20:26:07.640Z,97926.00
2023-01-18T20:28:34.887Z,97922.41
2023-01-18T20:31:02.345Z,97929.97
2023-01-18T20:33:29.130Z,97928.38
2023-01-18T20:35:55.488Z,97933.75
2023-01-18T20:38:21.893Z,97933.94
2023-01-18T20:40:48.760Z,97946.22
2023-01-18T20:43:15.136Z,97943.03
2023-01-18T20:45:41.565Z,97939.63
2023-01-18T20:48:07.981Z,97942.00
2023-01-18T20:50:34.437Z,97942.00
2023-01-18T20:53:01.285Z,97941.84
2023-01-18T20:55:27.989Z,97941.31
2023-01-18T20:57:54.331Z,97932.09
2023-01-18T21:00:22.416Z,97930.03
2023-01-18T21:02:49.265Z,97931.84
2023-01-18T21:05:15.844Z,97927.16
2023-01-18T21:07:42.782Z,97931.59
2023-01-18T21:10:10.610Z,97933.38
2023-01-18T21:12:36.976Z,97937.63
2023-01-18T21:15:03.701Z,97932.81
2023-01-18T21:17:30.117Z,97924.81
2023-01-18T21:19:56.879Z,97934.00
2023-01-18T21:22:23.220Z,97947.00
2023-01-18T21:24:49.673Z,97960.63
2023-01-18T21:27:16.339Z,97978.13
2023-01-18T21:29:42.883Z,97993.31
2023-01-18T21:32:09.340Z,98025.00
2023-01-18T21:34:35.769Z,98046.78
2023-01-18T21:37:02.237Z,98067.56
2023-01-18T21:39:29.111Z,98089.50
2023-01-18T21:41:55.496Z,98104.38
2023-01-18T21:44:22.188Z,98108.38
2023-01-18T21:46:51.022Z,98115.28
2023-01-18T21:49:32.012Z,98112.41
2023-01-18T21:52:00.483Z,98103.41
2023-01-18T21:54:27.100Z,98105.91
2023-01-18T21:56:53.444Z,98114.59
2023-01-18T21:59:19.964Z,98117.75
2023-01-18T22:01:46.364Z,98120.66
2023-01-18T22:04:14.247Z,98145.03
2023-01-18T22:06:40.636Z,98156.47
2023-01-18T22:09:08.153Z,98158.56
2023-01-18T22:11:34.707Z,98166.69
2023-01-18T22:14:05.605Z,98156.63
2023-01-18T22:16:32.223Z,98151.97
2023-01-18T22:18:59.510Z,98131.41
2023-01-18T22:21:28.773Z,98123.81
2023-01-18T22:23:55.569Z,98118.72
2023-01-18T22:26:25.780Z,98117.34
2023-01-18T22:28:52.145Z,98122.31
2023-01-18T22:31:18.877Z,98127.84
2023-01-18T22:33:45.994Z,98130.47
2023-01-18T22:36:12.849Z,98129.31
2023-01-18T22:38:40.012Z,98137.72
2023-01-18T22:41:14.520Z,98150.97
2023-01-18T22:43:41.599Z,98168.88
2023-01-18T22:46:08.705Z,98178.81
2023-01-18T22:48:37.339Z,98179.50
2023-01-18T22:51:05.469Z,98193.94
2023-01-18T22:53:32.368Z,98202.34
2023-01-18T22:56:02.895Z,98207.16
2023-01-18T22:58:30.199Z,98216.25
2023-01-18T23:00:56.817Z,98211.00
2023-01-18T23:03:23.359Z,98213.19
2023-01-18T23:06:08.475Z,98213.75
2023-01-18T23:08:36.202Z,98213.06
2023-01-18T23:11:02.575Z,98215.25
2023-01-18T23:13:29.125Z,98215.66
2023-01-18T23:15:55.789Z,98218.53
2023-01-18T23:18:22.503Z,98221.81
2023-01-18T23:20:49.006Z,98228.56
2023-01-18T23:23:16.114Z,98230.63
2023-01-18T23:25:42.709Z,98230.88
2023-01-18T23:28:13.049Z,98234.03
2023-01-18T23:30:39.722Z,98227.72
2023-01-18T23:33:06.040Z,98230.97
2023-01-18T23:35:32.754Z,98238.00
2023-01-18T23:37:59.520Z,98234.28
2023-01-18T23:40:26.260Z,98232.22
2023-01-18T23:42:53.877Z,98235.13
2023-01-18T23:45:20.473Z,98231.94
2023-01-18T23:47:46.891Z,98232.34
2023-01-18T23:50:13.360Z,98229.38
2023-01-18T23:52:40.439Z,98238.19
2023-01-18T23:55:08.425Z,98229.78
2023-01-18T23:57:35.207Z,98232.41
